KDOV/DOV METAR and TAF weather

Enter ICAO airport designator
Station Type Date Time Source
KDOV METAR 2022/06/30 00:56 UTC NOAA

KDOV 300056Z AUTO 20008KT 10SM CLR 25/14 A3017 RMK AO2 SLP220 T02490143


Station Type Date Time Source
KDOV Decoded METAR 2022/06/30 00:56 UTC NOAA

Dover Air Force Base, DE, United States (KDOV) 39-08N 075-28W
Jun 29, 2022 - 08:56 PM EDT / 2022.06.30 0056 UTC
Wind: from the SSW (200 degrees) at 9 MPH (8 KT):0
Visibility: 10 mile(s):0
Sky conditions: clear
Temperature: 76.8 F (24.9 C)
Dew Point: 57.7 F (14.3 C)
Relative Humidity: 51%
Pressure (altimeter): 30.17 in. Hg (1021 hPa)
ob: KDOV 300056Z AUTO 20008KT 10SM CLR 25/14 A3017 RMK AO2 SLP220 T02490143
cycle: 1

Station Type Date Time Source
KDOV TAF 2022/06/30 00:33 UTC NOAA

TAF KDOV 300000Z 3000/0106 21009KT 9999 SCT040 QNH3016INS
BECMG 3013/3014 VRB06KT 9999 SKC QNH3014INS WND 21006KT AFT 3023 TX30/3021Z TN18/3009Z

Example: see airport list